createdAt,value
2019-03-22T00:00:52.520Z,88.40
2019-03-22T00:03:22.340Z,88.60
2019-03-22T00:05:52.102Z,88.30
2019-03-22T00:08:21.814Z,88.60
2019-03-22T00:10:51.631Z,88.30
2019-03-22T00:13:24.228Z,88.30
2019-03-22T00:15:54.124Z,88.40
2019-03-22T00:18:23.904Z,88.70
2019-03-22T00:20:53.775Z,88.70
2019-03-22T00:23:23.534Z,89.10
2019-03-22T00:25:53.441Z,90.00
2019-03-22T00:28:23.291Z,90.20
2019-03-22T00:30:53.046Z,90.50
2019-03-22T00:33:22.904Z,90.60
2019-03-22T00:35:52.639Z,90.60
2019-03-22T00:38:22.424Z,91.00
2019-03-22T00:40:52.489Z,91.50
2019-03-22T00:43:22.712Z,91.50
2019-03-22T00:45:52.544Z,91.80
2019-03-22T00:48:24.834Z,92.60
2019-03-22T00:50:53.759Z,93.10
2019-03-22T00:53:23.570Z,93.90
2019-03-22T00:55:53.386Z,93.90
2019-03-22T00:58:23.429Z,94.00
2019-03-22T01:00:53.208Z,93.50
2019-03-22T01:03:23.038Z,93.50
2019-03-22T01:05:52.784Z,93.90
2019-03-22T01:08:22.662Z,94.30
2019-03-22T01:10:53.155Z,94.80
2019-03-22T01:13:23.807Z,94.90
2019-03-22T01:15:53.575Z,94.70
2019-03-22T01:18:23.713Z,94.70
2019-03-22T01:20:53.490Z,94.70
2019-03-22T01:23:23.611Z,94.60
2019-03-22T01:25:53.746Z,95.20
2019-03-22T01:28:23.434Z,94.80
2019-03-22T01:30:53.570Z,93.70
2019-03-22T01:33:23.331Z,92.70
2019-03-22T01:35:53.005Z,92.40
2019-03-22T01:38:23.005Z,91.70
2019-03-22T01:40:52.767Z,91.70
2019-03-22T01:43:22.604Z,91.90
2019-03-22T01:45:52.769Z,92.10
2019-03-22T01:48:22.527Z,92.40
2019-03-22T01:50:52.772Z,92.50
2019-03-22T01:53:22.488Z,92.40
2019-03-22T01:55:52.286Z,92.30
2019-03-22T01:58:22.072Z,92.00
2019-03-22T02:00:51.829Z,91.60
2019-03-22T02:03:21.616Z,90.60
2019-03-22T02:05:51.354Z,90.40
2019-03-22T02:08:21.307Z,90.10
2019-03-22T02:10:51.105Z,90.10
2019-03-22T02:13:21.019Z,89.90
2019-03-22T02:15:50.883Z,89.80
2019-03-22T02:18:21.411Z,89.80
2019-03-22T02:20:51.206Z,89.80
2019-03-22T02:23:20.967Z,89.90
2019-03-22T02:25:50.787Z,90.00
2019-03-22T02:28:20.503Z,90.10
2019-03-22T02:30:50.308Z,90.10
2019-03-22T02:33:20.081Z,90.30
2019-03-22T02:35:49.830Z,90.40
2019-03-22T02:38:19.629Z,90.60
2019-03-22T02:40:49.518Z,91.20
2019-03-22T02:43:19.332Z,91.50
2019-03-22T02:45:49.154Z,91.50
2019-03-22T02:48:19.671Z,91.60
2019-03-22T02:50:49.542Z,91.90
2019-03-22T02:53:19.639Z,91.80
2019-03-22T02:55:49.550Z,92.10
2019-03-22T02:58:21.399Z,92.80
2019-03-22T03:00:51.479Z,93.60
2019-03-22T03:03:21.886Z,94.10
2019-03-22T03:05:52.092Z,94.60
2019-03-22T03:08:21.951Z,95.00
2019-03-22T03:10:52.148Z,95.50
2019-03-22T03:13:21.837Z,95.90
2019-03-22T03:15:52.281Z,96.40
2019-03-22T03:18:22.436Z,97.00
2019-03-22T03:20:52.632Z,97.30
2019-03-22T03:23:22.801Z,97.00
2019-03-22T03:25:52.592Z,96.30
2019-03-22T03:28:36.032Z,96.20
2019-03-22T03:30:53.933Z,96.00
2019-03-22T03:33:23.799Z,94.90
2019-03-22T03:35:53.657Z,94.20
2019-03-22T03:38:24.142Z,93.90
2019-03-22T03:40:53.874Z,93.60
2019-03-22T03:43:23.668Z,94.10
2019-03-22T03:45:53.767Z,94.20
2019-03-22T03:48:23.545Z,94.30
2019-03-22T03:50:53.327Z,94.70
2019-03-22T03:53:23.123Z,95.50
2019-03-22T03:55:52.982Z,95.40
2019-03-22T03:58:23.210Z,95.10
2019-03-22T04:00:53.068Z,94.70
2019-03-22T04:03:22.953Z,93.30
2019-03-22T04:05:52.747Z,93.00
2019-03-22T04:08:22.877Z,93.90
2019-03-22T04:10:52.619Z,95.20
2019-03-22T04:13:22.655Z,95.90
2019-03-22T04:15:52.883Z,96.60
2019-03-22T04:18:22.695Z,97.50
2019-03-22T04:20:52.878Z,97.20
2019-03-22T04:23:22.796Z,97.90
2019-03-22T04:25:52.629Z,98.30
2019-03-22T04:28:22.768Z,98.70
2019-03-22T04:30:52.560Z,98.90
2019-03-22T04:33:22.348Z,99.30
2019-03-22T04:35:52.063Z,99.50
2019-03-22T04:38:21.932Z,99.70
2019-03-22T04:40:51.714Z,99.80
2019-03-22T04:43:21.860Z,99.80
2019-03-22T04:45:52.850Z,99.80
2019-03-22T04:48:27.863Z,99.80
2019-03-22T04:51:00.432Z,99.80
2019-03-22T04:53:35.476Z,99.80
2019-03-22T04:56:09.202Z,99.80
2019-03-22T04:58:41.919Z,99.80
2019-03-22T05:01:14.146Z,99.60
2019-03-22T05:03:44.659Z,99.80
2019-03-22T05:06:16.557Z,99.80
2019-03-22T05:08:47.343Z,99.80
2019-03-22T05:11:17.871Z,99.80
2019-03-22T05:13:50.482Z,99.80
2019-03-22T05:16:21.955Z,99.80
2019-03-22T05:18:53.796Z,99.80
2019-03-22T05:21:27.363Z,99.80
2019-03-22T05:24:03.467Z,99.80
2019-03-22T05:26:36.377Z,99.80
2019-03-22T05:29:08.965Z,99.80
2019-03-22T05:31:57.629Z,99.80
2019-03-22T05:34:27.718Z,99.80
2019-03-22T05:36:57.527Z,99.80
2019-03-22T05:39:27.407Z,99.80
2019-03-22T05:41:58.418Z,99.80
2019-03-22T05:44:28.924Z,99.60
2019-03-22T05:46:58.782Z,99.30
2019-03-22T05:49:28.766Z,99.00
2019-03-22T05:51:58.736Z,98.60
2019-03-22T05:54:28.793Z,98.10
2019-03-22T05:56:58.564Z,97.90
2019-03-22T05:59:28.467Z,97.20
2019-03-22T06:01:58.211Z,96.00
2019-03-22T06:04:27.991Z,96.10
2019-03-22T06:06:58.304Z,97.00
2019-03-22T06:09:28.007Z,98.70
2019-03-22T06:11:57.784Z,98.80
2019-03-22T06:14:27.608Z,98.20
2019-03-22T06:16:58.080Z,97.70
2019-03-22T06:19:27.867Z,97.50
2019-03-22T06:21:57.855Z,97.10
2019-03-22T06:24:27.929Z,97.20
2019-03-22T06:26:58.561Z,97.00
2019-03-22T06:29:28.308Z,97.00
2019-03-22T06:31:58.136Z,96.70
2019-03-22T06:34:28.209Z,96.50
2019-03-22T06:36:59.138Z,93.80
2019-03-22T06:39:28.806Z,93.90
2019-03-22T06:41:58.461Z,95.60
2019-03-22T06:44:28.147Z,97.20
2019-03-22T06:46:57.864Z,97.20
2019-03-22T06:49:28.289Z,97.20
2019-03-22T06:51:58.011Z,97.00
2019-03-22T06:54:31.814Z,96.50
2019-03-22T06:56:59.538Z,96.20
2019-03-22T06:59:29.304Z,95.50
2019-03-22T07:01:59.003Z,95.20
2019-03-22T07:04:29.738Z,95.00
2019-03-22T07:06:59.712Z,94.80
2019-03-22T07:09:29.788Z,94.60
2019-03-22T07:11:59.595Z,94.20
2019-03-22T07:14:29.655Z,93.40
2019-03-22T07:16:59.521Z,93.20
2019-03-22T07:19:29.321Z,92.10
2019-03-22T07:21:59.143Z,91.80
2019-03-22T07:24:29.424Z,91.60
2019-03-22T07:26:59.337Z,92.50
2019-03-22T07:29:29.108Z,92.50
2019-03-22T07:31:58.909Z,92.30
2019-03-22T07:34:28.781Z,92.70
2019-03-22T07:36:58.602Z,92.70
2019-03-22T07:39:28.593Z,90.60
2019-03-22T07:41:59.691Z,90.00
2019-03-22T07:44:29.669Z,90.10
2019-03-22T07:46:59.490Z,89.10
2019-03-22T07:49:29.687Z,89.30
2019-03-22T07:51:59.639Z,89.90
2019-03-22T07:54:29.480Z,90.70
2019-03-22T07:57:00.024Z,90.50
2019-03-22T07:59:30.326Z,90.50
2019-03-22T08:02:00.396Z,90.60
2019-03-22T08:04:30.154Z,89.60
2019-03-22T08:07:01.349Z,88.60
2019-03-22T08:09:32.421Z,87.70
2019-03-22T08:12:03.016Z,87.50
2019-03-22T08:14:32.786Z,87.50
2019-03-22T08:17:02.762Z,87.40
2019-03-22T08:19:33.035Z,87.00
2019-03-22T08:22:03.183Z,86.50
2019-03-22T08:24:33.301Z,88.30
2019-03-22T08:27:03.375Z,88.70
2019-03-22T08:29:33.375Z,87.90
2019-03-22T08:32:03.615Z,87.80
2019-03-22T08:34:33.541Z,88.10
2019-03-22T08:37:03.637Z,88.60
2019-03-22T08:39:34.113Z,88.60
2019-03-22T08:42:04.230Z,88.50
2019-03-22T08:44:34.107Z,88.20
2019-03-22T08:47:03.987Z,87.90
2019-03-22T08:49:34.164Z,86.70
2019-03-22T08:52:04.728Z,82.50
2019-03-22T08:54:34.703Z,81.10
2019-03-22T08:57:04.658Z,80.50
2019-03-22T08:59:34.994Z,81.00
2019-03-22T09:02:08.164Z,81.00
2019-03-22T09:04:36.704Z,80.60
2019-03-22T09:07:06.866Z,80.90
2019-03-22T09:09:41.640Z,79.00
2019-03-22T09:12:09.032Z,78.80
2019-03-22T09:14:38.864Z,77.40
2019-03-22T09:17:08.661Z,77.40
2019-03-22T09:19:38.927Z,78.10
2019-03-22T09:22:09.070Z,76.60
2019-03-22T09:24:39.638Z,77.10
2019-03-22T09:27:09.894Z,76.50
2019-03-22T09:29:40.704Z,75.30
2019-03-22T09:32:10.615Z,75.60
2019-03-22T09:34:40.415Z,75.40
2019-03-22T09:37:10.170Z,71.40
2019-03-22T09:39:41.362Z,67.50
2019-03-22T09:42:11.992Z,66.90
2019-03-22T09:44:44.184Z,67.00
2019-03-22T09:47:16.438Z,65.30
2019-03-22T09:49:45.266Z,67.00
2019-03-22T09:52:15.048Z,64.80
2019-03-22T09:54:44.745Z,65.40
2019-03-22T09:57:14.684Z,65.30
2019-03-22T09:59:44.496Z,65.70
2019-03-22T11:14:38.056Z,50.50
2019-03-22T11:17:08.271Z,51.90
2019-03-22T11:19:38.269Z,53.30
2019-03-22T11:57:47.917Z,31.60
2019-03-22T12:00:27.413Z,30.40
2019-03-22T12:05:42.763Z,27.90
2019-03-22T12:08:15.406Z,28.40
2019-03-22T12:10:47.043Z,27.40
2019-03-22T12:13:17.744Z,26.70
2019-03-22T12:15:48.977Z,26.60
2019-03-22T12:18:20.320Z,27.30
2019-03-22T12:20:51.201Z,27.00
2019-03-22T12:23:25.151Z,25.40
2019-03-22T12:25:58.542Z,25.20
2019-03-22T12:28:49.321Z,24.70
2019-03-22T12:31:21.196Z,24.70
2019-03-22T12:33:52.660Z,24.40
2019-03-22T12:36:23.741Z,23.80
2019-03-22T12:38:55.449Z,22.10
2019-03-22T12:41:25.376Z,23.40
2019-03-22T12:43:55.856Z,23.10
2019-03-22T12:46:27.687Z,22.60
2019-03-22T12:49:02.094Z,23.30
2019-03-22T12:51:31.799Z,24.40
2019-03-22T12:54:01.474Z,24.10
2019-03-22T12:56:32.039Z,23.50
2019-03-22T12:59:01.787Z,22.70
2019-03-22T13:01:31.608Z,23.60
2019-03-22T13:04:01.816Z,23.60
2019-03-22T13:06:31.995Z,23.30
2019-03-22T13:09:01.695Z,23.50
2019-03-22T13:11:31.743Z,22.00
2019-03-22T13:14:01.466Z,22.10
2019-03-22T13:16:31.288Z,23.10
2019-03-22T13:19:01.296Z,21.70
2019-03-22T13:24:00.176Z,21.30
2019-03-22T13:26:29.932Z,21.00
2019-03-22T13:28:59.695Z,21.90
2019-03-22T13:31:29.357Z,22.40
2019-03-22T13:33:59.079Z,20.30
2019-03-22T13:36:30.820Z,21.80
2019-03-22T13:39:00.512Z,23.30
2019-03-22T13:41:31.160Z,24.50
2019-03-22T13:44:01.012Z,25.70
2019-03-22T13:46:39.932Z,25.70
2019-03-22T13:49:03.754Z,23.70
2019-03-22T13:51:33.942Z,23.60
2019-03-22T13:54:03.646Z,21.20
2019-03-22T13:56:33.833Z,21.70
2019-03-22T13:59:03.496Z,22.60
2019-03-22T14:01:33.705Z,24.10
2019-03-22T14:04:04.918Z,24.40
2019-03-22T14:06:37.346Z,23.50
2019-03-22T14:09:08.754Z,23.00
2019-03-22T14:11:38.589Z,22.10
2019-03-22T14:14:08.373Z,22.20
2019-03-22T14:16:38.293Z,25.30
2019-03-22T14:19:08.154Z,24.90
2019-03-22T14:21:38.127Z,23.90
2019-03-22T14:24:08.068Z,23.20
2019-03-22T14:26:37.859Z,22.20
2019-03-22T14:29:07.586Z,24.30
2019-03-22T14:31:37.380Z,25.80
2019-03-22T14:34:08.441Z,26.40
2019-03-22T14:36:38.217Z,25.40
2019-03-22T14:39:09.563Z,25.40
2019-03-22T14:41:39.599Z,23.80
2019-03-22T14:44:10.533Z,22.80
2019-03-22T14:46:40.638Z,20.80
2019-03-22T14:49:11.515Z,21.90
2019-03-22T14:51:41.290Z,21.40
2019-03-22T14:54:11.348Z,22.80
2019-03-22T14:56:41.118Z,25.00
2019-03-22T14:59:11.232Z,25.40
2019-03-22T15:01:41.772Z,26.00
2019-03-22T15:04:11.663Z,26.20
2019-03-22T15:06:41.624Z,27.10
2019-03-22T15:09:11.382Z,26.70
2019-03-22T15:11:41.567Z,26.50
2019-03-22T15:14:30.346Z,25.80
2019-03-22T15:17:28.321Z,23.70
2019-03-22T15:20:16.043Z,21.90
2019-03-22T15:22:59.820Z,20.90
2019-03-22T15:26:01.243Z,20.80
2019-03-22T15:28:53.194Z,20.50
2019-03-22T15:31:41.955Z,19.50
2019-03-22T15:34:30.515Z,19.70
2019-03-22T15:37:29.749Z,18.90
2019-03-22T15:40:02.695Z,20.50
2019-03-22T15:42:32.396Z,20.90
2019-03-22T15:45:02.197Z,21.70
2019-03-22T15:47:31.987Z,22.90
2019-03-22T15:50:02.031Z,23.10
2019-03-22T15:52:32.070Z,24.20
2019-03-22T15:55:02.083Z,25.30
2019-03-22T15:57:31.815Z,28.40
2019-03-22T16:00:01.583Z,30.20
2019-03-22T16:02:31.282Z,30.40
2019-03-22T16:05:01.870Z,30.30
2019-03-22T16:07:31.980Z,30.90
2019-03-22T16:10:02.042Z,29.50
2019-03-22T16:12:31.834Z,29.10
2019-03-22T16:15:01.917Z,27.90
2019-03-22T16:17:32.083Z,26.70
2019-03-22T16:20:02.523Z,24.30
2019-03-22T16:22:32.572Z,23.50
2019-03-22T16:25:02.341Z,24.10
2019-03-22T16:27:32.483Z,25.10
2019-03-22T16:30:02.470Z,27.40
2019-03-22T16:32:32.277Z,28.60
2019-03-22T16:35:01.974Z,31.40
2019-03-22T16:37:32.386Z,29.90
2019-03-22T16:40:04.513Z,32.70
2019-03-22T16:42:33.838Z,33.90
2019-03-22T16:45:05.631Z,33.70
2019-03-22T16:47:35.824Z,34.30
2019-03-22T16:50:10.485Z,33.10
2019-03-22T16:52:40.248Z,32.30
2019-03-22T16:55:11.734Z,31.70
2019-03-22T16:57:41.516Z,33.70
2019-03-22T17:00:11.516Z,34.00
2019-03-22T17:02:41.312Z,34.60
2019-03-22T17:05:11.841Z,34.60
2019-03-22T17:07:43.227Z,34.00
2019-03-22T17:10:13.220Z,33.70
2019-03-22T17:12:43.996Z,34.00
2019-03-22T17:15:15.712Z,35.10
2019-03-22T17:17:45.487Z,36.20
2019-03-22T17:20:15.505Z,36.50
2019-03-22T17:22:46.226Z,36.80
2019-03-22T17:25:16.054Z,37.40
2019-03-22T17:27:46.212Z,39.70
2019-03-22T17:30:19.301Z,42.40
2019-03-22T17:32:49.130Z,45.50
2019-03-22T17:35:19.949Z,47.00
2019-03-22T17:37:49.710Z,48.80
2019-03-22T17:40:22.516Z,50.30
2019-03-22T17:42:53.036Z,50.00
2019-03-22T17:45:22.756Z,51.70
2019-03-22T17:47:53.262Z,54.00
2019-03-22T17:50:24.968Z,53.90
2019-03-22T17:52:55.964Z,53.30
2019-03-22T17:55:25.774Z,52.50
2019-03-22T17:57:56.735Z,52.90
2019-03-22T18:00:26.991Z,53.00
2019-03-22T18:02:56.796Z,53.30
2019-03-22T18:05:27.303Z,53.60
2019-03-22T18:07:57.018Z,54.00
2019-03-22T18:10:27.743Z,54.40
2019-03-22T18:12:57.748Z,54.60
2019-03-22T18:15:27.506Z,54.40
2019-03-22T18:17:57.921Z,55.10
2019-03-22T18:20:27.723Z,55.00
2019-03-22T18:22:57.653Z,55.50
2019-03-22T18:25:27.465Z,55.70
2019-03-22T18:27:57.305Z,56.10
2019-03-22T18:30:27.112Z,56.40
2019-03-22T18:32:56.947Z,56.70
2019-03-22T18:35:26.831Z,57.60
2019-03-22T18:37:57.088Z,58.30
2019-03-22T18:40:27.516Z,58.40
2019-03-22T18:42:57.727Z,58.00
2019-03-22T18:45:27.637Z,58.20
2019-03-22T18:47:57.619Z,57.90
2019-03-22T18:50:27.813Z,57.90
2019-03-22T18:52:57.527Z,57.70
2019-03-22T18:55:27.403Z,58.20
2019-03-22T18:57:57.174Z,58.70
2019-03-22T19:00:27.067Z,59.10
2019-03-22T19:02:56.903Z,59.20
2019-03-22T19:05:27.147Z,59.30
2019-03-22T19:07:57.274Z,59.20
2019-03-22T19:10:27.068Z,59.70
2019-03-22T19:12:56.906Z,59.40
2019-03-22T19:15:27.024Z,59.90
2019-03-22T19:17:57.319Z,59.90
2019-03-22T19:20:27.151Z,60.00
2019-03-22T19:22:57.376Z,61.30
2019-03-22T19:25:27.223Z,62.20
2019-03-22T19:27:57.611Z,62.60
2019-03-22T19:30:27.513Z,63.10
2019-03-22T19:32:57.616Z,63.20
2019-03-22T19:35:27.459Z,63.60
2019-03-22T19:37:57.504Z,64.80
2019-03-22T19:40:27.251Z,65.90
2019-03-22T19:42:57.145Z,64.90
2019-03-22T19:45:26.958Z,66.80
2019-03-22T19:47:56.773Z,65.40
2019-03-22T19:50:27.056Z,65.00
2019-03-22T19:52:56.788Z,65.90
2019-03-22T19:55:26.636Z,66.80
2019-03-22T19:57:56.528Z,67.20
2019-03-22T20:00:26.343Z,67.20
2019-03-22T20:02:56.208Z,68.40
2019-03-22T20:05:30.454Z,69.50
2019-03-22T20:08:00.275Z,70.10
2019-03-22T20:10:30.272Z,70.90
2019-03-22T20:13:00.617Z,71.10
2019-03-22T20:15:30.443Z,71.20
2019-03-22T20:18:00.225Z,71.10
2019-03-22T20:20:30.361Z,70.90
2019-03-22T20:23:00.235Z,71.00
2019-03-22T20:25:30.048Z,70.40
2019-03-22T20:27:59.856Z,70.00
2019-03-22T20:30:29.607Z,70.00
2019-03-22T20:32:59.751Z,70.30
2019-03-22T20:35:30.030Z,70.90
2019-03-22T20:37:59.876Z,70.80
2019-03-22T20:40:30.032Z,71.20
2019-03-22T20:42:59.832Z,71.90
2019-03-22T20:45:29.651Z,72.40
2019-03-22T20:47:59.521Z,72.20
2019-03-22T20:50:35.826Z,72.50
2019-03-22T20:53:01.223Z,70.40
2019-03-22T20:55:31.101Z,71.40
2019-03-22T20:58:00.992Z,71.30
2019-03-22T21:00:31.245Z,72.20
2019-03-22T21:03:05.513Z,72.20
2019-03-22T21:05:35.813Z,72.40
2019-03-22T21:08:07.961Z,73.40
2019-03-22T21:10:37.806Z,74.00
2019-03-22T21:13:07.975Z,74.50
2019-03-22T21:15:38.153Z,74.60
2019-03-22T21:18:08.015Z,75.00
2019-03-22T21:20:37.908Z,75.20
2019-03-22T21:23:07.822Z,76.10
2019-03-22T21:25:38.460Z,76.10
2019-03-22T21:28:08.275Z,75.80
2019-03-22T21:30:38.094Z,76.50
2019-03-22T21:33:07.848Z,76.80
2019-03-22T21:35:37.802Z,76.50
2019-03-22T21:38:11.380Z,76.90
2019-03-22T21:40:41.308Z,77.70
2019-03-22T21:43:11.164Z,78.10
2019-03-22T21:45:40.996Z,78.30
2019-03-22T21:48:10.775Z,78.90
2019-03-22T21:50:40.663Z,79.20
2019-03-22T21:53:10.488Z,79.10
2019-03-22T21:55:40.461Z,77.90
2019-03-22T21:58:15.603Z,78.50
2019-03-22T22:00:46.344Z,79.30
2019-03-22T22:03:18.861Z,79.10
2019-03-22T22:05:48.670Z,78.40
2019-03-22T22:08:18.743Z,79.10
2019-03-22T22:10:55.528Z,79.20
2019-03-22T22:13:20.523Z,79.20
2019-03-22T22:15:50.314Z,79.00
2019-03-22T22:18:20.111Z,79.40
2019-03-22T22:20:50.732Z,78.60
2019-03-22T22:23:20.688Z,80.10
2019-03-22T22:25:50.470Z,81.10
2019-03-22T22:28:20.257Z,81.60
2019-03-22T22:30:50.117Z,82.10
2019-03-22T22:33:19.824Z,82.50
2019-03-22T22:35:58.160Z,82.60
2019-03-22T22:38:22.312Z,83.20
2019-03-22T22:40:52.804Z,83.50
2019-03-22T22:43:23.267Z,83.30
2019-03-22T22:45:53.080Z,83.10
2019-03-22T22:48:23.078Z,83.10
2019-03-22T22:50:52.875Z,83.60
2019-03-22T22:53:23.037Z,83.60
2019-03-22T22:55:52.872Z,84.30
2019-03-22T22:58:22.796Z,84.50
2019-03-22T23:00:52.924Z,84.50
2019-03-22T23:03:22.803Z,84.50
2019-03-22T23:05:52.568Z,84.30
2019-03-22T23:08:22.467Z,84.10
2019-03-22T23:10:52.631Z,83.50
2019-03-22T23:13:22.359Z,83.70
2019-03-22T23:15:52.089Z,83.50
2019-03-22T23:18:21.936Z,83.60
2019-03-22T23:20:51.901Z,83.90
2019-03-22T23:23:22.620Z,84.10
2019-03-22T23:25:53.912Z,83.80
2019-03-22T23:28:23.918Z,83.50
2019-03-22T23:30:54.890Z,83.30
2019-03-22T23:33:24.818Z,83.80
2019-03-22T23:35:54.580Z,82.80
2019-03-22T23:38:24.451Z,83.30
2019-03-22T23:40:54.244Z,83.60
2019-03-22T23:43:24.378Z,83.10
2019-03-22T23:45:54.202Z,83.20
2019-03-22T23:48:24.055Z,83.90
2019-03-22T23:50:53.915Z,84.50
2019-03-22T23:53:23.686Z,84.90
2019-03-22T23:55:53.405Z,85.30
2019-03-22T23:58:23.211Z,85.70
